Time;durP1;ratioP1;P1;durP2;ratioP2;P2;SDS_P1;SDS_P2;PMS_P1;PMS_P2;Temp;Humidity;BMP_temperature;BMP_pressure;BME280_temperature;BME280_humidity;BME280_pressure;Samples;Min_cycle;Max_cycle;Signal;HPM_P1;HPM_P2
2023/06/08 00:01:07;;;;;;;;;;;;;;;;;;5019094;28;19920;-60
2023/06/08 00:03:33;;;;;;;;;;;;;;;;;;5029740;28;19971;-60
2023/06/08 00:06:00;;;;;;;;;;;;;;;;;;5040347;28;19987;-61
2023/06/08 00:08:25;;;;;;;;;;;;;;;;;;5040629;28;20305;-61
2023/06/08 00:10:51;;;;;;;;;;;;;;;;;;5039102;28;19927;-61
2023/06/08 00:13:17;;;;;;;;;;;;;;;;;;5045085;28;19929;-61
2023/06/08 00:15:43;;;;;;;;;;;;;;;;;;5042858;28;19932;-61
2023/06/08 00:18:09;;;;;;;;;;;;;;;;;;5039044;28;20292;-61
2023/06/08 00:20:35;;;;;;;;;;;;;;;;;;5048116;28;20007;-59
2023/06/08 00:23:03;;;;;;;;;;;;;;;;;;5043205;28;20086;-60
2023/06/08 00:25:29;;;;;;;;;;;;;;;;;;5044885;28;19971;-60
2023/06/08 00:27:55;;;;;;;;;;;;;;;;;;5049726;28;19971;-60
2023/06/08 00:30:21;;;;;;;;;;;;;;;;;;5046143;28;20011;-60
2023/06/08 00:32:47;;;;;;;;;;;;;;;;;;5041036;28;19959;-60
2023/06/08 00:35:13;;;;;;;;;;;;;;;;;;5037788;28;19924;-61
2023/06/08 00:37:38;;;;;;;;;;;;;;;;;;5019778;28;20409;-60
2023/06/08 00:40:04;;;;;;;;;;;;;;;;;;5024484;28;19932;-60
2023/06/08 00:42:30;;;;;;;;;;;;;;;;;;5032573;28;19925;-61
2023/06/08 00:44:56;;;;;;;;;;;;;;;;;;5043132;28;19925;-61
2023/06/08 00:47:22;;;;;;;;;;;;;;;;;;5047737;28;20290;-61
2023/06/08 00:49:48;;;;;;;;;;;;;;;;;;5037969;28;19956;-61
2023/06/08 00:52:14;;;;;;;;;;;;;;;;;;5028946;28;20053;-61
2023/06/08 00:54:40;;;;;;;;;;;;;;;;;;5038699;28;19921;-61
2023/06/08 00:57:06;;;;;;;;;;;;;;;;;;5032330;28;19925;-61
2023/06/08 00:59:32;;;;;;;;;;;;;;;;;;5046145;28;19921;-61
2023/06/08 01:01:58;;;;;;;;;;;;;;;;;;5026857;28;19943;-61
2023/06/08 01:04:25;;;;;;;;;;;;;;;;;;5036084;28;20526;-61
2023/06/08 01:06:53;;;;;;;;;;;;;;;;;;5027620;28;19925;-60
2023/06/08 01:09:19;;;;;;;;;;;;;;;;;;5037475;28;19925;-60
2023/06/08 01:11:45;;;;;;;;;;;;;;;;;;5025782;28;20003;-61
2023/06/08 01:14:13;;;;;;;;;;;;;;;;;;5041217;28;19925;-60
2023/06/08 01:16:38;;;;;;;;;;;;;;;;;;5049701;28;19936;-60
2023/06/08 01:19:08;;;;;;;;;;;;;;;;;;5048030;28;20378;-60
2023/06/08 01:21:35;;;;;;;;;;;;;;;;;;5043504;28;19925;-61
2023/06/08 01:24:01;;;;;;;;;;;;;;;;;;5041902;28;20023;-60
2023/06/08 01:26:26;;;;;;;;;;;;;;;;;;5035075;28;20008;-60
2023/06/08 01:28:52;;;;;;;;;;;;;;;;;;5052907;28;20297;-60
2023/06/08 01:31:18;;;;;;;;;;;;;;;;;;5032035;28;19929;-60
2023/06/08 01:33:44;;;;;;;;;;;;;;;;;;5051498;28;19933;-60
2023/06/08 01:36:10;;;;;;;;;;;;;;;;;;4999226;28;19924;-60
2023/06/08 01:38:36;;;;;;;;;;;;;;;;;;5027885;28;19921;-60
2023/06/08 01:41:02;;;;;;;;;;;;;;;;;;5044902;28;20317;-59
2023/06/08 01:43:28;;;;;;;;;;;;;;;;;;5019433;28;20392;-60
2023/06/08 01:45:54;;;;;;;;;;;;;;;;;;5051383;28;19925;-59
2023/06/08 01:48:20;;;;;;;;;;;;;;;;;;5046331;28;19921;-59
2023/06/08 01:50:46;;;;;;;;;;;;;;;;;;5045711;28;20011;-59
2023/06/08 01:53:12;;;;;;;;;;;;;;;;;;5036044;28;20016;-59
2023/06/08 01:55:38;;;;;;;;;;;;;;;;;;5043924;28;20370;-59
2023/06/08 01:58:04;;;;;;;;;;;;;;;;;;5026022;28;19975;-58
2023/06/08 02:00:30;;;;;;;;;;;;;;;;;;5045108;28;19990;-59
2023/06/08 02:02:56;;;;;;;;;;;;;;;;;;5024460;28;19921;-58
2023/06/08 02:05:22;;;;;;;;;;;;;;;;;;5059602;22;19933;-60
2023/06/08 02:07:48;;;;;;;;;;;;;;;;;;5037314;28;19990;-60
2023/06/08 02:10:14;;;;;;;;;;;;;;;;;;5058207;28;19924;-60
2023/06/08 02:12:40;;;;;;;;;;;;;;;;;;5042092;28;19929;-60
2023/06/08 02:15:06;;;;;;;;;;;;;;;;;;5034623;28;19921;-60
2023/06/08 02:17:35;;;;;;;;;;;;;;;;;;5063626;28;19924;-59
2023/06/08 02:20:05;;;;;;;;;;;;;;;;;;5065554;28;19924;-60
2023/06/08 02:22:31;;;;;;;;;;;;;;;;;;5057363;28;20011;-59
2023/06/08 02:24:57;;;;;;;;;;;;;;;;;;5058308;28;20023;-60
2023/06/08 02:27:23;;;;;;;;;;;;;;;;;;5060594;28;19920;-60
2023/06/08 02:29:49;;;;;;;;;;;;;;;;;;5062055;28;20362;-60
2023/06/08 02:32:15;;;;;;;;;;;;;;;;;;5033979;28;19935;-60
2023/06/08 02:34:41;;;;;;;;;;;;;;;;;;5059121;28;20310;-60
2023/06/08 02:37:07;;;;;;;;;;;;;;;;;;5065175;28;20432;-60
2023/06/08 02:39:33;;;;;;;;;;;;;;;;;;5051511;28;19929;-60
2023/06/08 02:41:59;;;;;;;;;;;;;;;;;;5037236;28;19924;-60
2023/06/08 02:44:25;;;;;;;;;;;;;;;;;;5048845;28;20370;-60
2023/06/08 02:46:51;;;;;;;;;;;;;;;;;;5064185;28;19929;-60
2023/06/08 02:49:17;;;;;;;;;;;;;;;;;;5047445;28;19925;-60
2023/06/08 02:51:43;;;;;;;;;;;;;;;;;;5062453;28;19932;-60
2023/06/08 02:54:08;;;;;;;;;;;;;;;;;;5049893;28;20374;-60
2023/06/08 02:56:34;;;;;;;;;;;;;;;;;;5064422;28;20018;-60
2023/06/08 02:59:02;;;;;;;;;;;;;;;;;;5046078;28;19924;-60
2023/06/08 03:01:30;;;;;;;;;;;;;;;;;;5061003;28;20394;-60
2023/06/08 03:03:56;;;;;;;;;;;;;;;;;;5064431;28;19926;-60
2023/06/08 03:06:22;;;;;;;;;;;;;;;;;;5036218;28;19928;-60
2023/06/08 03:08:53;;;;;;;;;;;;;;;;;;5063663;28;19924;-60
2023/06/08 03:11:20;;;;;;;;;;;;;;;;;;5036424;28;19925;-60
2023/06/08 03:13:46;;;;;;;;;;;;;;;;;;5062300;28;20005;-60
2023/06/08 03:16:12;;;;;;;;;;;;;;;;;;5036786;28;19995;-60
2023/06/08 03:18:39;;;;;;;;;;;;;;;;;;5051939;28;19952;-60
2023/06/08 03:21:07;;;;;;;;;;;;;;;;;;5070758;28;19972;-59
2023/06/08 03:23:35;;;;;;;;;;;;;;;;;;5058702;28;20010;-60
2023/06/08 03:26:01;;;;;;;;;;;;;;;;;;5028775;28;20361;-60
2023/06/08 03:28:27;;;;;;;;;;;;;;;;;;5064810;28;19990;-60
2023/06/08 03:30:53;;;;;;;;;;;;;;;;;;5039686;28;19924;-60
2023/06/08 03:33:19;;;;;;;;;;;;;;;;;;5061948;28;19920;-60
2023/06/08 03:35:45;;;;;;;;;;;;;;;;;;5056827;28;20418;-60
2023/06/08 03:38:11;;;;;;;;;;;;;;;;;;5058071;28;19924;-60
2023/06/08 03:40:37;;;;;;;;;;;;;;;;;;5056580;28;20011;-61
2023/06/08 03:43:02;;;;;;;;;;;;;;;;;;5064333;28;20305;-60
2023/06/08 03:45:29;;;;;;;;;;;;;;;;;;5055702;28;19932;-61
2023/06/08 03:47:55;;;;;;;;;;;;;;;;;;5054302;28;20616;-61
2023/06/08 03:50:21;;;;;;;;;;;;;;;;;;5051037;28;20015;-61
2023/06/08 03:52:46;;;;;;;;;;;;;;;;;;5063050;28;20059;-61
2023/06/08 03:55:13;;;;;;;;;;;;;;;;;;5051603;28;20390;-61
2023/06/08 03:57:38;;;;;;;;;;;;;;;;;;5058959;28;19968;-61
2023/06/08 04:00:07;;;;;;;;;;;;;;;;;;5041910;28;19959;-61
2023/06/08 04:02:32;;;;;;;;;;;;;;;;;;5063729;28;19920;-61
2023/06/08 04:04:59;;;;;;;;;;;;;;;;;;5058690;28;20611;-61
2023/06/08 04:07:26;;;;;;;;;;;;;;;;;;5050113;28;20348;-61
2023/06/08 04:09:52;;;;;;;;;;;;;;;;;;5048866;28;20683;-61
2023/06/08 04:12:18;;;;;;;;;;;;;;;;;;5052363;28;19928;-58
2023/06/08 04:14:45;;;;;;;;;;;;;;;;;;5050637;28;19928;-60
2023/06/08 04:17:12;;;;;;;;;;;;;;;;;;5055065;28;19931;-60
2023/06/08 04:19:38;;;;;;;;;;;;;;;;;;5064500;28;19920;-60
2023/06/08 04:22:04;;;;;;;;;;;;;;;;;;5048933;28;20297;-60
2023/06/08 04:24:30;;;;;;;;;;;;;;;;;;5067471;28;19920;-60
2023/06/08 04:26:56;;;;;;;;;;;;;;;;;;5040067;28;19929;-60
2023/06/08 04:29:22;;;;;;;;;;;;;;;;;;5041223;28;19921;-60
2023/06/08 04:31:48;;;;;;;;;;;;;;;;;;5064162;28;19924;-60
2023/06/08 04:34:15;;;;;;;;;;;;;;;;;;5065158;28;20270;-60
2023/06/08 04:36:44;;;;;;;;;;;;;;;;;;5061136;28;20297;-60
2023/06/08 04:39:10;;;;;;;;;;;;;;;;;;5046462;28;20534;-60
2023/06/08 04:41:36;;;;;;;;;;;;;;;;;;5040074;28;20018;-60
2023/06/08 04:44:02;;;;;;;;;;;;;;;;;;5031817;28;19927;-61
2023/06/08 04:46:28;;;;;;;;;;;;;;;;;;5050799;28;19925;-60
2023/06/08 04:48:55;;;;;;;;;;;;;;;;;;5058687;28;19925;-60
2023/06/08 04:51:23;;;;;;;;;;;;;;;;;;5052719;28;20007;-60
2023/06/08 04:53:50;;;;;;;;;;;;;;;;;;5056641;28;19921;-60
2023/06/08 04:56:18;;;;;;;;;;;;;;;;;;5054600;28;19920;-60
2023/06/08 04:58:45;;;;;;;;;;;;;;;;;;5050166;28;19920;-60
2023/06/08 05:01:11;;;;;;;;;;;;;;;;;;5049174;28;19924;-60
2023/06/08 05:03:36;;;;;;;;;;;;;;;;;;5034695;28;19931;-60
2023/06/08 05:06:02;;;;;;;;;;;;;;;;;;5049030;28;20278;-60
2023/06/08 05:08:28;;;;;;;;;;;;;;;;;;5033207;28;19927;-60
2023/06/08 05:10:54;;;;;;;;;;;;;;;;;;5051391;28;19924;-60
2023/06/08 05:13:20;;;;;;;;;;;;;;;;;;5017192;28;19925;-60
2023/06/08 05:15:46;;;;;;;;;;;;;;;;;;5031314;28;19927;-60
2023/06/08 05:18:12;;;;;;;;;;;;;;;;;;5013513;28;19967;-60
2023/06/08 05:20:38;;;;;;;;;;;;;;;;;;5029275;28;19925;-60
2023/06/08 05:23:04;;;;;;;;;;;;;;;;;;5032998;28;19971;-60
2023/06/08 05:25:30;;;;;;;;;;;;;;;;;;5051465;28;19925;-60
2023/06/08 05:27:56;;;;;;;;;;;;;;;;;;5047098;28;20007;-60
2023/06/08 05:30:22;;;;;;;;;;;;;;;;;;5039001;28;19924;-60
2023/06/08 05:32:48;;;;;;;;;;;;;;;;;;5052095;28;19921;-61
2023/06/08 05:35:13;;;;;;;;;;;;;;;;;;5066789;28;19952;-61
2023/06/08 05:37:39;;;;;;;;;;;;;;;;;;5059847;28;20447;-61
2023/06/08 05:40:05;;;;;;;;;;;;;;;;;;5036588;28;19936;-61
2023/06/08 05:42:31;;;;;;;;;;;;;;;;;;5049263;28;20008;-61
2023/06/08 05:44:57;;;;;;;;;;;;;;;;;;5067309;28;19924;-60
2023/06/08 05:47:23;;;;;;;;;;;;;;;;;;5025466;28;19927;-61
2023/06/08 05:49:49;;;;;;;;;;;;;;;;;;5054992;28;19925;-60
2023/06/08 05:52:15;;;;;;;;;;;;;;;;;;5068605;28;20278;-60
2023/06/08 05:54:41;;;;;;;;;;;;;;;;;;5060115;28;19928;-61
2023/06/08 05:57:07;;;;;;;;;;;;;;;;;;5049819;28;19956;-61
2023/06/08 05:59:32;;;;;;;;;;;;;;;;;;5062135;28;19935;-61
2023/06/08 06:01:58;;;;;;;;;;;;;;;;;;5037740;28;19927;-61
2023/06/08 06:04:24;;;;;;;;;;;;;;;;;;5050389;28;20056;-61
2023/06/08 06:06:50;;;;;;;;;;;;;;;;;;5034654;28;19947;-61
2023/06/08 06:09:16;;;;;;;;;;;;;;;;;;5064006;28;19928;-61
2023/06/08 06:11:42;;;;;;;;;;;;;;;;;;5064541;28;20278;-61
2023/06/08 06:14:08;;;;;;;;;;;;;;;;;;5044545;28;19960;-61
2023/06/08 06:16:34;;;;;;;;;;;;;;;;;;5061023;28;19921;-61
2023/06/08 06:19:00;;;;;;;;;;;;;;;;;;5061446;28;19928;-61
2023/06/08 06:21:26;;;;;;;;;;;;;;;;;;5057990;28;19975;-62
2023/06/08 06:23:51;;;;;;;;;;;;;;;;;;5044176;28;19921;-61
2023/06/08 06:26:17;;;;;;;;;;;;;;;;;;5052494;28;20507;-61
2023/06/08 06:28:43;;;;;;;;;;;;;;;;;;5053857;28;19928;-61
2023/06/08 06:31:09;;;;;;;;;;;;;;;;;;5054618;28;20010;-61
2023/06/08 06:33:35;;;;;;;;;;;;;;;;;;5053399;28;20011;-61
2023/06/08 06:36:01;;;;;;;;;;;;;;;;;;5054783;28;19920;-61
2023/06/08 06:38:27;;;;;;;;;;;;;;;;;;5051245;28;19967;-61
2023/06/08 06:40:53;;;;;;;;;;;;;;;;;;5060206;28;19924;-61
2023/06/08 06:43:19;;;;;;;;;;;;;;;;;;5061495;28;19921;-61
2023/06/08 06:45:50;;;;;;;;;;;;;;;;;;5063173;28;20423;-61
2023/06/08 06:48:16;;;;;;;;;;;;;;;;;;5056968;28;19963;-61
2023/06/08 06:50:42;;;;;;;;;;;;;;;;;;5066573;28;20355;-61
2023/06/08 06:53:08;;;;;;;;;;;;;;;;;;5050743;28;19924;-61
2023/06/08 06:55:34;;;;;;;;;;;;;;;;;;5028361;28;19947;-59
2023/06/08 06:58:02;;;;;;;;;;;;;;;;;;5041668;28;19925;-60
2023/06/08 07:00:29;;;;;;;;;;;;;;;;;;5064203;28;19963;-61
2023/06/08 07:02:56;;;;;;;;;;;;;;;;;;5060650;28;19931;-60
2023/06/08 07:05:22;;;;;;;;;;;;;;;;;;5055964;28;19925;-60
2023/06/08 07:07:48;;;;;;;;;;;;;;;;;;5059351;28;19925;-61
2023/06/08 07:10:14;;;;;;;;;;;;;;;;;;5051941;28;19966;-61
2023/06/08 07:12:40;;;;;;;;;;;;;;;;;;5053847;28;19920;-60
2023/06/08 07:15:06;;;;;;;;;;;;;;;;;;5052282;28;19935;-61
2023/06/08 07:17:31;;;;;;;;;;;;;;;;;;5057079;28;20333;-60
2023/06/08 07:19:58;;;;;;;;;;;;;;;;;;5062781;28;19921;-61
2023/06/08 07:22:24;;;;;;;;;;;;;;;;;;5054930;28;19930;-61
2023/06/08 07:24:50;;;;;;;;;;;;;;;;;;5056478;28;19928;-61
2023/06/08 07:27:16;;;;;;;;;;;;;;;;;;5054254;28;20435;-61
2023/06/08 07:29:42;;;;;;;;;;;;;;;;;;5042737;28;19925;-60
2023/06/08 07:32:08;;;;;;;;;;;;;;;;;;5061021;28;19924;-61
2023/06/08 07:34:33;;;;;;;;;;;;;;;;;;5054335;28;19925;-60
2023/06/08 07:37:00;;;;;;;;;;;;;;;;;;5050744;28;19920;-60
2023/06/08 07:39:26;;;;;;;;;;;;;;;;;;5047641;28;19924;-61
2023/06/08 07:41:52;;;;;;;;;;;;;;;;;;5044851;28;20289;-61
2023/06/08 07:44:18;;;;;;;;;;;;;;;;;;5059007;28;19928;-61
2023/06/08 07:46:44;;;;;;;;;;;;;;;;;;5042769;28;20023;-61
2023/06/08 07:49:10;;;;;;;;;;;;;;;;;;5054519;28;19925;-60
2023/06/08 07:51:37;;;;;;;;;;;;;;;;;;5064431;28;19932;-60
2023/06/08 07:54:02;;;;;;;;;;;;;;;;;;5039470;28;19921;-65
2023/06/08 07:56:28;;;;;;;;;;;;;;;;;;5052318;28;19924;-65
2023/06/08 07:58:54;;;;;;;;;;;;;;;;;;5053579;28;19939;-65
2023/06/08 08:01:20;;;;;;;;;;;;;;;;;;5051904;28;19928;-65
2023/06/08 08:03:46;;;;;;;;;;;;;;;;;;5049236;28;19994;-64
2023/06/08 08:06:12;;;;;;;;;;;;;;;;;;5049159;22;20310;-59
2023/06/08 08:08:38;;;;;;;;;;;;;;;;;;5032120;28;19921;-59
2023/06/08 08:11:04;;;;;;;;;;;;;;;;;;5028373;28;20009;-59
2023/06/08 08:13:30;;;;;;;;;;;;;;;;;;5032019;28;19928;-59
2023/06/08 08:15:56;;;;;;;;;;;;;;;;;;5030347;28;20287;-59
2023/06/08 08:18:22;;;;;;;;;;;;;;;;;;5031639;28;19921;-59
2023/06/08 08:20:47;;;;;;;;;;;;;;;;;;5027686;28;19921;-58
2023/06/08 08:23:13;;;;;;;;;;;;;;;;;;5045687;28;19929;-59
2023/06/08 08:25:40;;;;;;;;;;;;;;;;;;5031076;28;19975;-59
2023/06/08 08:28:06;;;;;;;;;;;;;;;;;;5034285;28;19920;-59
2023/06/08 08:30:32;;;;;;;;;;;;;;;;;;5036246;28;19986;-60
2023/06/08 08:32:58;;;;;;;;;;;;;;;;;;5047298;28;19929;-59
2023/06/08 08:35:28;;;;;;;;;;;;;;;;;;5025705;28;20374;-59
2023/06/08 08:37:54;;;;;;;;;;;;;;;;;;5036279;28;20012;-59
2023/06/08 08:40:20;;;;;;;;;;;;;;;;;;5035376;28;20024;-59
2023/06/08 08:42:46;;;;;;;;;;;;;;;;;;5038129;28;20012;-59
2023/06/08 08:45:15;;;;;;;;;;;;;;;;;;5044368;28;20007;-60
2023/06/08 08:47:41;;;;;;;;;;;;;;;;;;5035198;28;20019;-60
2023/06/08 08:50:09;;;;;;;;;;;;;;;;;;5020186;28;20048;-59
2023/06/08 08:52:37;;;;;;;;;;;;;;;;;;5030533;28;19935;-59
2023/06/08 08:55:03;;;;;;;;;;;;;;;;;;5039982;28;19925;-60
2023/06/08 08:57:29;;;;;;;;;;;;;;;;;;5029500;28;19925;-59
2023/06/08 08:59:55;;;;;;;;;;;;;;;;;;5034036;28;19963;-59
2023/06/08 09:02:20;;;;;;;;;;;;;;;;;;5039802;28;20450;-59
2023/06/08 09:04:46;;;;;;;;;;;;;;;;;;5031243;28;20304;-60
2023/06/08 09:07:12;;;;;;;;;;;;;;;;;;5052656;28;19929;-60
2023/06/08 09:09:38;;;;;;;;;;;;;;;;;;5045660;28;19920;-59
2023/06/08 09:12:05;;;;;;;;;;;;;;;;;;5037269;28;20663;-59
2023/06/08 09:14:31;;;;;;;;;;;;;;;;;;5059630;28;19967;-59
2023/06/08 09:17:01;;;;;;;;;;;;;;;;;;5034583;28;19971;-59
2023/06/08 09:19:28;;;;;;;;;;;;;;;;;;5050716;28;19928;-59
2023/06/08 09:21:54;;;;;;;;;;;;;;;;;;5052963;28;19925;-60
2023/06/08 09:24:22;;;;;;;;;;;;;;;;;;5072851;28;20410;-59
2023/06/08 09:26:48;;;;;;;;;;;;;;;;;;5048712;28;19929;-59
2023/06/08 09:29:14;;;;;;;;;;;;;;;;;;5071441;28;19939;-59
2023/06/08 09:31:40;;;;;;;;;;;;;;;;;;5050041;28;19924;-59
2023/06/08 09:34:06;;;;;;;;;;;;;;;;;;5043368;28;19932;-59
2023/06/08 09:36:36;;;;;;;;;;;;;;;;;;5061217;28;20370;-59
2023/06/08 09:39:03;;;;;;;;;;;;;;;;;;5047842;28;19925;-59
2023/06/08 09:41:29;;;;;;;;;;;;;;;;;;5044056;28;19928;-59
2023/06/08 09:43:55;;;;;;;;;;;;;;;;;;5046940;28;19924;-59
2023/06/08 09:46:21;;;;;;;;;;;;;;;;;;5039047;28;19929;-59
2023/06/08 09:48:47;;;;;;;;;;;;;;;;;;5059632;28;19921;-58
2023/06/08 09:51:13;;;;;;;;;;;;;;;;;;5044969;28;20023;-59
2023/06/08 09:53:39;;;;;;;;;;;;;;;;;;5044533;28;19971;-59
2023/06/08 09:56:05;;;;;;;;;;;;;;;;;;5049379;28;19937;-59
2023/06/08 09:58:31;;;;;;;;;;;;;;;;;;5058815;28;19932;-59
2023/06/08 10:00:58;;;;;;;;;;;;;;;;;;5051398;28;20016;-59
2023/06/08 10:03:27;;;;;;;;;;;;;;;;;;5055641;28;19964;-59
2023/06/08 10:05:52;;;;;;;;;;;;;;;;;;5044655;28;19979;-59
2023/06/08 10:08:18;;;;;;;;;;;;;;;;;;5059548;28;19920;-59
2023/06/08 10:10:44;;;;;;;;;;;;;;;;;;5054198;28;20110;-59
2023/06/08 10:13:10;;;;;;;;;;;;;;;;;;5056081;28;20312;-59
2023/06/08 10:15:36;;;;;;;;;;;;;;;;;;5047686;28;19979;-58
2023/06/08 10:18:02;;;;;;;;;;;;;;;;;;5055544;28;19921;-59
2023/06/08 10:20:28;;;;;;;;;;;;;;;;;;5036570;28;19931;-59
2023/06/08 10:22:57;;;;;;;;;;;;;;;;;;5058863;28;20151;-59
2023/06/08 10:25:23;;;;;;;;;;;;;;;;;;5059258;28;19925;-59
2023/06/08 10:27:48;;;;;;;;;;;;;;;;;;5062433;28;19975;-59
2023/06/08 10:30:14;;;;;;;;;;;;;;;;;;5052521;28;19921;-59
2023/06/08 10:32:42;;;;;;;;;;;;;;;;;;5047794;28;20278;-59
2023/06/08 10:35:08;;;;;;;;;;;;;;;;;;5052262;28;19931;-58
2023/06/08 10:37:34;;;;;;;;;;;;;;;;;;5058584;28;20012;-59
2023/06/08 10:40:00;;;;;;;;;;;;;;;;;;5060638;28;20006;-60
2023/06/08 10:42:26;;;;;;;;;;;;;;;;;;5053987;28;20421;-60
2023/06/08 10:44:52;;;;;;;;;;;;;;;;;;5034185;28;20318;-59
2023/06/08 10:47:18;;;;;;;;;;;;;;;;;;5053603;28;19994;-60
2023/06/08 10:49:44;;;;;;;;;;;;;;;;;;5063369;28;20354;-60
2023/06/08 10:52:10;;;;;;;;;;;;;;;;;;5053867;28;19953;-59
2023/06/08 10:54:36;;;;;;;;;;;;;;;;;;5056647;28;19974;-59
2023/06/08 10:57:02;;;;;;;;;;;;;;;;;;5052350;28;19929;-59
2023/06/08 10:59:28;;;;;;;;;;;;;;;;;;5047698;28;19966;-59
2023/06/08 11:01:54;;;;;;;;;;;;;;;;;;5053853;28;19973;-59
2023/06/08 11:04:20;;;;;;;;;;;;;;;;;;5049955;28;20003;-59
2023/06/08 11:06:46;;;;;;;;;;;;;;;;;;5045703;28;20389;-59
2023/06/08 11:09:12;;;;;;;;;;;;;;;;;;5053653;28;19920;-59
2023/06/08 11:11:37;;;;;;;;;;;;;;;;;;5065570;28;19998;-60
2023/06/08 11:14:03;;;;;;;;;;;;;;;;;;5048624;28;19921;-59
2023/06/08 11:16:29;;;;;;;;;;;;;;;;;;5069569;28;19920;-59
2023/06/08 11:18:55;;;;;;;;;;;;;;;;;;5026563;28;19952;-59
2023/06/08 11:21:21;;;;;;;;;;;;;;;;;;5052641;28;20093;-60
2023/06/08 11:23:47;;;;;;;;;;;;;;;;;;5052257;28;19924;-59
2023/06/08 11:26:13;;;;;;;;;;;;;;;;;;5051584;28;19925;-59
2023/06/08 11:28:39;;;;;;;;;;;;;;;;;;5051905;28;20023;-59
2023/06/08 11:31:05;;;;;;;;;;;;;;;;;;5051130;28;20375;-60
2023/06/08 11:33:33;;;;;;;;;;;;;;;;;;5061338;28;20063;-59
2023/06/08 11:35:59;;;;;;;;;;;;;;;;;;5045269;28;19924;-59
2023/06/08 11:38:24;;;;;;;;;;;;;;;;;;5026707;28;19927;-59
2023/06/08 11:40:51;;;;;;;;;;;;;;;;;;5058021;28;20305;-59
2023/06/08 11:43:17;;;;;;;;;;;;;;;;;;5054225;28;19932;-59
2023/06/08 11:45:42;;;;;;;;;;;;;;;;;;5061573;28;19928;-58
2023/06/08 11:48:08;;;;;;;;;;;;;;;;;;5034588;28;19920;-59
2023/06/08 11:50:34;;;;;;;;;;;;;;;;;;5054775;28;20373;-59
2023/06/08 11:53:00;;;;;;;;;;;;;;;;;;5064302;28;19924;-59
2023/06/08 11:55:26;;;;;;;;;;;;;;;;;;5037480;28;19929;-59
2023/06/08 11:57:53;;;;;;;;;;;;;;;;;;5016767;28;20004;-60
2023/06/08 12:00:19;;;;;;;;;;;;;;;;;;5056003;28;20028;-59
2023/06/08 12:02:45;;;;;;;;;;;;;;;;;;5044652;28;20500;-59
2023/06/08 12:05:11;;;;;;;;;;;;;;;;;;5049824;28;19925;-60
2023/06/08 12:07:37;;;;;;;;;;;;;;;;;;5058715;28;19932;-58
2023/06/08 12:10:03;;;;;;;;;;;;;;;;;;5048443;28;19924;-59
2023/06/08 12:12:29;;;;;;;;;;;;;;;;;;5054092;28;19920;-59
2023/06/08 12:14:55;;;;;;;;;;;;;;;;;;5058433;28;19920;-59
2023/06/08 12:17:20;;;;;;;;;;;;;;;;;;5048274;28;19927;-59
2023/06/08 12:19:47;;;;;;;;;;;;;;;;;;5070282;28;19924;-59
2023/06/08 12:22:13;;;;;;;;;;;;;;;;;;5048082;28;19929;-58
2023/06/08 12:24:38;;;;;;;;;;;;;;;;;;5064185;28;20393;-59
2023/06/08 12:27:06;;;;;;;;;;;;;;;;;;5041228;28;19979;-58
2023/06/08 12:29:32;;;;;;;;;;;;;;;;;;5046296;28;20351;-60
2023/06/08 12:31:59;;;;;;;;;;;;;;;;;;5041182;28;19970;-59
2023/06/08 12:34:25;;;;;;;;;;;;;;;;;;5038549;28;19946;-59
2023/06/08 12:36:51;;;;;;;;;;;;;;;;;;5037403;28;19928;-59
2023/06/08 12:39:16;;;;;;;;;;;;;;;;;;5042462;28;20287;-59
2023/06/08 12:41:42;;;;;;;;;;;;;;;;;;5066000;28;19978;-60
2023/06/08 12:44:10;;;;;;;;;;;;;;;;;;5063764;28;20048;-60
2023/06/08 12:46:36;;;;;;;;;;;;;;;;;;5058408;28;19928;-60
2023/06/08 12:49:01;;;;;;;;;;;;;;;;;;5049090;28;20440;-59
2023/06/08 12:51:27;;;;;;;;;;;;;;;;;;5037075;28;19920;-59
2023/06/08 12:53:53;;;;;;;;;;;;;;;;;;5029972;28;20610;-59
2023/06/08 12:56:20;;;;;;;;;;;;;;;;;;5055597;28;19928;-59
2023/06/08 12:58:46;;;;;;;;;;;;;;;;;;5058747;28;20644;-59
2023/06/08 13:01:12;;;;;;;;;;;;;;;;;;5048756;28;19931;-59
2023/06/08 13:03:39;;;;;;;;;;;;;;;;;;5053023;28;20283;-59
2023/06/08 13:06:05;;;;;;;;;;;;;;;;;;5056292;28;20408;-60
2023/06/08 13:08:31;;;;;;;;;;;;;;;;;;5053095;28;19921;-59
2023/06/08 13:10:57;;;;;;;;;;;;;;;;;;5048434;28;19920;-60
2023/06/08 13:13:23;;;;;;;;;;;;;;;;;;5045088;28;19921;-60
2023/06/08 13:15:53;;;;;;;;;;;;;;;;;;5021857;28;19988;-60
2023/06/08 13:18:19;;;;;;;;;;;;;;;;;;5050702;28;19920;-60
2023/06/08 13:20:45;;;;;;;;;;;;;;;;;;5050009;28;20018;-60
2023/06/08 13:23:11;;;;;;;;;;;;;;;;;;5056158;28;20004;-60
2023/06/08 13:25:37;;;;;;;;;;;;;;;;;;5057437;28;19929;-60
2023/06/08 13:28:03;;;;;;;;;;;;;;;;;;5063928;28;19966;-60
2023/06/08 13:30:29;;;;;;;;;;;;;;;;;;5036548;28;20353;-60
2023/06/08 13:32:55;;;;;;;;;;;;;;;;;;5056612;28;19982;-60
2023/06/08 13:35:21;;;;;;;;;;;;;;;;;;5064238;28;19942;-60
2023/06/08 13:37:47;;;;;;;;;;;;;;;;;;5039451;28;19952;-60
2023/06/08 13:40:13;;;;;;;;;;;;;;;;;;5054119;28;19927;-60
2023/06/08 13:42:39;;;;;;;;;;;;;;;;;;5054887;28;19921;-60
2023/06/08 13:45:10;;;;;;;;;;;;;;;;;;5036480;28;19971;-63
2023/06/08 13:47:35;;;;;;;;;;;;;;;;;;5047042;28;19931;-64
2023/06/08 13:50:02;;;;;;;;;;;;;;;;;;5039719;28;19975;-63
2023/06/08 13:52:29;;;;;;;;;;;;;;;;;;5053442;28;19924;-59
2023/06/08 13:54:55;;;;;;;;;;;;;;;;;;5065629;28;19921;-59
2023/06/08 13:57:21;;;;;;;;;;;;;;;;;;5058112;28;19981;-59
2023/06/08 13:59:47;;;;;;;;;;;;;;;;;;5066832;28;19920;-59
2023/06/08 14:02:12;;;;;;;;;;;;;;;;;;5049130;28;20281;-59
2023/06/08 14:04:38;;;;;;;;;;;;;;;;;;5050980;28;19921;-59
2023/06/08 14:07:04;;;;;;;;;;;;;;;;;;5051283;28;20035;-59
2023/06/08 14:09:31;;;;;;;;;;;;;;;;;;5049212;28;19924;-59
2023/06/08 14:11:57;;;;;;;;;;;;;;;;;;5043663;28;20373;-58
2023/06/08 14:14:22;;;;;;;;;;;;;;;;;;5052012;28;19925;-59
2023/06/08 14:16:48;;;;;;;;;;;;;;;;;;5064768;28;20103;-59
2023/06/08 14:19:14;;;;;;;;;;;;;;;;;;5034811;28;20461;-59
2023/06/08 14:21:40;;;;;;;;;;;;;;;;;;5061209;28;20421;-59
2023/06/08 14:24:06;;;;;;;;;;;;;;;;;;5071776;28;19924;-59
2023/06/08 14:26:32;;;;;;;;;;;;;;;;;;5053986;28;19979;-59
2023/06/08 14:28:58;;;;;;;;;;;;;;;;;;5046951;28;20497;-59
2023/06/08 14:31:29;;;;;;;;;;;;;;;;;;5053270;28;19920;-60
2023/06/08 14:33:55;;;;;;;;;;;;;;;;;;5063725;28;19951;-60
2023/06/08 14:36:20;;;;;;;;;;;;;;;;;;5057561;28;19968;-60
2023/06/08 14:38:48;;;;;;;;;;;;;;;;;;5052132;28;19925;-60
2023/06/08 14:41:14;;;;;;;;;;;;;;;;;;5063364;28;20251;-60
2023/06/08 14:43:40;;;;;;;;;;;;;;;;;;5047882;28;19925;-59
2023/06/08 14:46:10;;;;;;;;;;;;;;;;;;5056894;28;19928;-59
2023/06/08 14:48:36;;;;;;;;;;;;;;;;;;5060112;28;19925;-60
2023/06/08 14:51:02;;;;;;;;;;;;;;;;;;5047212;28;19931;-60
2023/06/08 14:53:28;;;;;;;;;;;;;;;;;;5057966;28;19921;-60
2023/06/08 14:55:54;;;;;;;;;;;;;;;;;;5073317;28;19926;-60
2023/06/08 14:58:20;;;;;;;;;;;;;;;;;;5052276;28;19924;-60
2023/06/08 15:00:46;;;;;;;;;;;;;;;;;;5054924;28;19928;-60
2023/06/08 15:03:12;;;;;;;;;;;;;;;;;;5053137;28;19928;-60
2023/06/08 15:05:39;;;;;;;;;;;;;;;;;;5051776;28;19925;-59
2023/06/08 15:08:05;;;;;;;;;;;;;;;;;;5059884;28;19924;-59
2023/06/08 15:10:31;;;;;;;;;;;;;;;;;;5043140;28;19928;-59
2023/06/08 15:12:57;;;;;;;;;;;;;;;;;;5069620;28;20267;-59
2023/06/08 15:15:23;;;;;;;;;;;;;;;;;;5063154;28;20346;-60
2023/06/08 15:17:49;;;;;;;;;;;;;;;;;;5037129;28;19975;-59
2023/06/08 15:20:15;;;;;;;;;;;;;;;;;;5053251;28;19932;-59
2023/06/08 15:22:41;;;;;;;;;;;;;;;;;;5056270;28;19921;-60
2023/06/08 15:25:07;;;;;;;;;;;;;;;;;;5060877;28;19947;-59
2023/06/08 15:27:33;;;;;;;;;;;;;;;;;;5044789;28;19925;-60
2023/06/08 15:29:59;;;;;;;;;;;;;;;;;;5067945;28;19925;-59
2023/06/08 15:32:25;;;;;;;;;;;;;;;;;;5050583;28;19935;-61
2023/06/08 15:34:51;;;;;;;;;;;;;;;;;;5047570;28;21903;-59
2023/06/08 15:37:17;;;;;;;;;;;;;;;;;;5055283;28;19924;-60
2023/06/08 15:39:43;;;;;;;;;;;;;;;;;;5034615;28;19963;-60
2023/06/08 15:42:10;;;;;;;;;;;;;;;;;;5055376;28;19925;-58
2023/06/08 15:44:35;;;;;;;;;;;;;;;;;;5065703;28;19945;-59
2023/06/08 15:47:03;;;;;;;;;;;;;;;;;;5055413;28;19962;-59
2023/06/08 15:49:29;;;;;;;;;;;;;;;;;;5063338;28;20043;-59
2023/06/08 15:51:55;;;;;;;;;;;;;;;;;;5054704;28;19946;-59
2023/06/08 15:54:21;;;;;;;;;;;;;;;;;;5051457;28;19924;-59
2023/06/08 15:56:47;;;;;;;;;;;;;;;;;;5058708;28;19920;-59
2023/06/08 15:59:13;;;;;;;;;;;;;;;;;;5060359;28;19928;-62
2023/06/08 16:01:39;;;;;;;;;;;;;;;;;;5014324;28;19931;-62
2023/06/08 16:04:04;;;;;;;;;;;;;;;;;;5035036;28;19984;-61
2023/06/08 16:06:30;;;;;;;;;;;;;;;;;;5037326;28;19931;-61
2023/06/08 16:08:56;;;;;;;;;;;;;;;;;;5055228;28;19937;-62
2023/06/08 16:11:22;;;;;;;;;;;;;;;;;;5052077;28;19921;-62
2023/06/08 16:13:49;;;;;;;;;;;;;;;;;;5050682;28;19928;-62
2023/06/08 16:16:15;;;;;;;;;;;;;;;;;;5057681;28;20031;-61
2023/06/08 16:18:41;;;;;;;;;;;;;;;;;;5048479;28;20038;-62
2023/06/08 16:21:08;;;;;;;;;;;;;;;;;;5053515;28;19928;-62
2023/06/08 16:23:34;;;;;;;;;;;;;;;;;;5062988;28;20014;-61
2023/06/08 16:26:01;;;;;;;;;;;;;;;;;;5051906;28;20031;-61
2023/06/08 16:28:28;;;;;;;;;;;;;;;;;;5061437;28;19924;-61
2023/06/08 16:30:54;;;;;;;;;;;;;;;;;;5041181;28;20373;-62
2023/06/08 16:33:20;;;;;;;;;;;;;;;;;;5054839;28;19925;-62
2023/06/08 16:35:46;;;;;;;;;;;;;;;;;;5066492;28;19948;-62
2023/06/08 16:38:12;;;;;;;;;;;;;;;;;;5054362;28;19921;-61